sensor_id;sensor_type;location;lat;lon;timestamp;P1;durP1;ratioP1;P2;durP2;ratioP2
65130;SDS011;51709;54.912;8.316;2023-03-20T00:01:46;5.33;;;2.50;;
65130;SDS011;51709;54.912;8.316;2023-03-20T00:07:08;4.82;;;3.08;;
65130;SDS011;51709;54.912;8.316;2023-03-20T00:12:31;5.47;;;2.78;;
65130;SDS011;51709;54.912;8.316;2023-03-20T00:17:52;3.20;;;2.30;;
65130;SDS011;51709;54.912;8.316;2023-03-20T00:23:13;4.00;;;1.30;;
65130;SDS011;51709;54.912;8.316;2023-03-20T00:28:35;2.85;;;1.90;;
65130;SDS011;51709;54.912;8.316;2023-03-20T00:34:01;2.28;;;2.05;;
65130;SDS011;51709;54.912;8.316;2023-03-20T00:39:25;4.43;;;1.65;;
65130;SDS011;51709;54.912;8.316;2023-03-20T00:44:47;9.07;;;2.47;;
65130;SDS011;51709;54.912;8.316;2023-03-20T00:50:14;2.97;;;2.33;;
65130;SDS011;51709;54.912;8.316;2023-03-20T00:55:37;6.53;;;2.17;;
65130;SDS011;51709;54.912;8.316;2023-03-20T01:00:59;4.25;;;2.67;;
65130;SDS011;51709;54.912;8.316;2023-03-20T01:06:20;5.05;;;2.03;;
65130;SDS011;51709;54.912;8.316;2023-03-20T01:11:42;5.65;;;2.67;;
65130;SDS011;51709;54.912;8.316;2023-03-20T01:17:03;5.60;;;2.20;;
65130;SDS011;51709;54.912;8.316;2023-03-20T01:22:24;5.68;;;2.22;;
65130;SDS011;51709;54.912;8.316;2023-03-20T01:27:51;3.47;;;2.00;;
65130;SDS011;51709;54.912;8.316;2023-03-20T01:33:15;4.95;;;1.98;;
65130;SDS011;51709;54.912;8.316;2023-03-20T01:38:41;6.82;;;1.75;;
65130;SDS011;51709;54.912;8.316;2023-03-20T01:44:08;8.00;;;1.65;;
65130;SDS011;51709;54.912;8.316;2023-03-20T01:50:13;10.55;;;2.50;;
65130;SDS011;51709;54.912;8.316;2023-03-20T01:55:49;5.95;;;1.10;;
65130;SDS011;51709;54.912;8.316;2023-03-20T02:01:15;8.48;;;2.08;;
65130;SDS011;51709;54.912;8.316;2023-03-20T02:06:37;17.35;;;3.00;;
65130;SDS011;51709;54.912;8.316;2023-03-20T02:12:09;10.98;;;2.28;;
65130;SDS011;51709;54.912;8.316;2023-03-20T02:17:31;11.93;;;2.42;;
65130;SDS011;51709;54.912;8.316;2023-03-20T02:23:04;15.43;;;2.65;;
65130;SDS011;51709;54.912;8.316;2023-03-20T02:28:45;12.95;;;2.45;;
65130;SDS011;51709;54.912;8.316;2023-03-20T02:40:16;17.80;;;2.10;;
65130;SDS011;51709;54.912;8.316;2023-03-20T02:51:36;5.63;;;2.25;;
65130;SDS011;51709;54.912;8.316;2023-03-20T02:57:01;8.82;;;1.77;;
65130;SDS011;51709;54.912;8.316;2023-03-20T03:02:35;7.32;;;2.17;;
65130;SDS011;51709;54.912;8.316;2023-03-20T03:08:00;10.15;;;1.48;;
65130;SDS011;51709;54.912;8.316;2023-03-20T03:13:28;5.22;;;1.40;;
65130;SDS011;51709;54.912;8.316;2023-03-20T03:19:06;6.55;;;1.65;;
65130;SDS011;51709;54.912;8.316;2023-03-20T03:24:34;7.43;;;2.35;;
65130;SDS011;51709;54.912;8.316;2023-03-20T03:35:43;9.90;;;3.63;;
65130;SDS011;51709;54.912;8.316;2023-03-20T03:46:36;10.10;;;2.70;;
65130;SDS011;51709;54.912;8.316;2023-03-20T03:52:05;14.73;;;3.75;;
65130;SDS011;51709;54.912;8.316;2023-03-20T03:57:36;6.65;;;3.15;;
65130;SDS011;51709;54.912;8.316;2023-03-20T04:03:05;17.83;;;3.17;;
65130;SDS011;51709;54.912;8.316;2023-03-20T04:08:28;16.20;;;3.05;;
65130;SDS011;51709;54.912;8.316;2023-03-20T04:13:49;12.45;;;3.08;;
65130;SDS011;51709;54.912;8.316;2023-03-20T04:19:11;10.55;;;2.58;;
65130;SDS011;51709;54.912;8.316;2023-03-20T04:24:32;6.90;;;3.10;;
65130;SDS011;51709;54.912;8.316;2023-03-20T04:29:53;19.27;;;3.00;;
65130;SDS011;51709;54.912;8.316;2023-03-20T04:35:33;10.23;;;2.38;;
65130;SDS011;51709;54.912;8.316;2023-03-20T04:41:00;10.15;;;3.30;;
65130;SDS011;51709;54.912;8.316;2023-03-20T04:46:21;12.88;;;2.55;;
65130;SDS011;51709;54.912;8.316;2023-03-20T04:51:43;9.38;;;2.88;;
65130;SDS011;51709;54.912;8.316;2023-03-20T04:57:06;8.18;;;2.47;;
65130;SDS011;51709;54.912;8.316;2023-03-20T05:02:27;15.27;;;2.78;;
65130;SDS011;51709;54.912;8.316;2023-03-20T05:07:48;14.88;;;3.20;;
65130;SDS011;51709;54.912;8.316;2023-03-20T05:13:17;6.70;;;2.72;;
65130;SDS011;51709;54.912;8.316;2023-03-20T05:18:56;12.07;;;3.53;;
65130;SDS011;51709;54.912;8.316;2023-03-20T05:24:26;10.90;;;3.45;;
65130;SDS011;51709;54.912;8.316;2023-03-20T05:30:07;10.13;;;3.83;;
65130;SDS011;51709;54.912;8.316;2023-03-20T05:35:47;16.23;;;2.80;;
65130;SDS011;51709;54.912;8.316;2023-03-20T05:41:43;11.27;;;3.35;;
65130;SDS011;51709;54.912;8.316;2023-03-20T05:47:24;10.00;;;2.90;;
65130;SDS011;51709;54.912;8.316;2023-03-20T05:53:08;6.27;;;2.63;;
65130;SDS011;51709;54.912;8.316;2023-03-20T05:58:47;10.52;;;2.83;;
65130;SDS011;51709;54.912;8.316;2023-03-20T06:04:26;6.85;;;2.38;;
65130;SDS011;51709;54.912;8.316;2023-03-20T06:09:56;15.02;;;2.83;;
65130;SDS011;51709;54.912;8.316;2023-03-20T06:15:18;4.95;;;1.92;;
65130;SDS011;51709;54.912;8.316;2023-03-20T06:20:50;5.97;;;2.42;;
65130;SDS011;51709;54.912;8.316;2023-03-20T06:26:13;9.27;;;3.10;;
65130;SDS011;51709;54.912;8.316;2023-03-20T06:31:50;3.30;;;2.42;;
65130;SDS011;51709;54.912;8.316;2023-03-20T06:37:18;6.78;;;2.70;;
65130;SDS011;51709;54.912;8.316;2023-03-20T06:42:41;17.40;;;2.38;;
65130;SDS011;51709;54.912;8.316;2023-03-20T06:48:06;17.55;;;3.30;;
65130;SDS011;51709;54.912;8.316;2023-03-20T06:53:28;7.78;;;2.63;;
65130;SDS011;51709;54.912;8.316;2023-03-20T06:58:58;11.45;;;2.28;;
65130;SDS011;51709;54.912;8.316;2023-03-20T07:04:22;15.43;;;2.55;;
65130;SDS011;51709;54.912;8.316;2023-03-20T07:09:46;16.83;;;3.15;;
65130;SDS011;51709;54.912;8.316;2023-03-20T07:15:07;16.27;;;3.33;;
65130;SDS011;51709;54.912;8.316;2023-03-20T07:20:29;7.85;;;2.55;;
65130;SDS011;51709;54.912;8.316;2023-03-20T07:25:51;5.65;;;2.92;;
65130;SDS011;51709;54.912;8.316;2023-03-20T07:31:23;20.15;;;3.75;;
65130;SDS011;51709;54.912;8.316;2023-03-20T07:36:58;14.38;;;3.80;;
65130;SDS011;51709;54.912;8.316;2023-03-20T07:42:20;8.77;;;2.97;;
65130;SDS011;51709;54.912;8.316;2023-03-20T07:47:50;11.68;;;3.35;;
65130;SDS011;51709;54.912;8.316;2023-03-20T07:53:10;14.15;;;3.30;;
65130;SDS011;51709;54.912;8.316;2023-03-20T07:58:31;12.38;;;3.08;;
65130;SDS011;51709;54.912;8.316;2023-03-20T08:03:54;15.63;;;2.58;;
65130;SDS011;51709;54.912;8.316;2023-03-20T08:09:15;18.95;;;3.30;;
65130;SDS011;51709;54.912;8.316;2023-03-20T08:14:36;18.17;;;3.28;;
65130;SDS011;51709;54.912;8.316;2023-03-20T08:19:59;16.02;;;3.10;;
65130;SDS011;51709;54.912;8.316;2023-03-20T08:25:19;16.40;;;3.08;;
65130;SDS011;51709;54.912;8.316;2023-03-20T08:30:41;14.52;;;3.47;;
65130;SDS011;51709;54.912;8.316;2023-03-20T08:36:01;23.98;;;3.83;;
65130;SDS011;51709;54.912;8.316;2023-03-20T08:41:22;16.67;;;2.83;;
65130;SDS011;51709;54.912;8.316;2023-03-20T08:46:43;8.80;;;3.70;;
65130;SDS011;51709;54.912;8.316;2023-03-20T08:52:05;9.05;;;3.55;;
65130;SDS011;51709;54.912;8.316;2023-03-20T08:57:26;15.25;;;4.00;;
65130;SDS011;51709;54.912;8.316;2023-03-20T09:02:47;18.17;;;4.13;;
65130;SDS011;51709;54.912;8.316;2023-03-20T09:08:08;10.07;;;4.05;;
65130;SDS011;51709;54.912;8.316;2023-03-20T09:13:28;17.35;;;4.22;;
65130;SDS011;51709;54.912;8.316;2023-03-20T09:18:49;9.02;;;3.85;;
65130;SDS011;51709;54.912;8.316;2023-03-20T09:24:10;15.00;;;3.53;;
65130;SDS011;51709;54.912;8.316;2023-03-20T09:29:31;10.15;;;4.03;;
65130;SDS011;51709;54.912;8.316;2023-03-20T09:34:51;9.73;;;3.95;;
65130;SDS011;51709;54.912;8.316;2023-03-20T09:57:49;15.30;;;5.93;;
65130;SDS011;51709;54.912;8.316;2023-03-20T10:08:58;16.33;;;5.13;;
65130;SDS011;51709;54.912;8.316;2023-03-20T10:25:45;16.02;;;3.85;;
65130;SDS011;51709;54.912;8.316;2023-03-20T10:31:22;16.60;;;4.32;;
65130;SDS011;51709;54.912;8.316;2023-03-20T10:37:11;18.33;;;4.38;;
65130;SDS011;51709;54.912;8.316;2023-03-20T10:42:49;20.77;;;4.85;;
65130;SDS011;51709;54.912;8.316;2023-03-20T10:48:15;18.15;;;5.35;;
65130;SDS011;51709;54.912;8.316;2023-03-20T10:53:49;21.17;;;5.35;;
65130;SDS011;51709;54.912;8.316;2023-03-20T10:59:23;16.67;;;4.43;;
65130;SDS011;51709;54.912;8.316;2023-03-20T11:04:52;17.77;;;5.22;;
65130;SDS011;51709;54.912;8.316;2023-03-20T11:10:13;17.35;;;5.47;;
65130;SDS011;51709;54.912;8.316;2023-03-20T11:15:36;14.63;;;5.23;;
65130;SDS011;51709;54.912;8.316;2023-03-20T11:20:57;18.60;;;4.65;;
65130;SDS011;51709;54.912;8.316;2023-03-20T11:26:35;14.75;;;4.85;;
65130;SDS011;51709;54.912;8.316;2023-03-20T11:32:02;14.95;;;4.22;;
65130;SDS011;51709;54.912;8.316;2023-03-20T11:37:27;23.85;;;5.97;;
65130;SDS011;51709;54.912;8.316;2023-03-20T11:42:57;18.35;;;5.07;;
65130;SDS011;51709;54.912;8.316;2023-03-20T11:48:24;22.52;;;5.70;;
65130;SDS011;51709;54.912;8.316;2023-03-20T11:53:59;18.17;;;5.43;;
65130;SDS011;51709;54.912;8.316;2023-03-20T11:59:28;22.13;;;4.72;;
65130;SDS011;51709;54.912;8.316;2023-03-20T12:04:53;20.08;;;5.22;;
65130;SDS011;51709;54.912;8.316;2023-03-20T12:10:20;25.10;;;5.45;;
65130;SDS011;51709;54.912;8.316;2023-03-20T12:15:45;21.55;;;6.53;;
65130;SDS011;51709;54.912;8.316;2023-03-20T12:26:51;21.10;;;5.38;;
65130;SDS011;51709;54.912;8.316;2023-03-20T12:32:20;19.15;;;4.32;;
65130;SDS011;51709;54.912;8.316;2023-03-20T12:37:47;23.35;;;5.25;;
65130;SDS011;51709;54.912;8.316;2023-03-20T12:43:15;15.00;;;4.15;;
65130;SDS011;51709;54.912;8.316;2023-03-20T12:59:55;25.45;;;6.15;;
65130;SDS011;51709;54.912;8.316;2023-03-20T13:05:37;21.58;;;5.60;;
65130;SDS011;51709;54.912;8.316;2023-03-20T13:11:12;19.15;;;4.90;;
65130;SDS011;51709;54.912;8.316;2023-03-20T13:17:12;15.60;;;4.93;;
65130;SDS011;51709;54.912;8.316;2023-03-20T13:22:53;18.40;;;5.00;;
65130;SDS011;51709;54.912;8.316;2023-03-20T13:34:12;14.98;;;4.57;;
65130;SDS011;51709;54.912;8.316;2023-03-20T13:40:02;22.10;;;5.10;;
65130;SDS011;51709;54.912;8.316;2023-03-20T13:45:35;23.70;;;4.70;;
65130;SDS011;51709;54.912;8.316;2023-03-20T13:56:44;25.77;;;4.32;;
65130;SDS011;51709;54.912;8.316;2023-03-20T14:03:01;18.25;;;3.45;;
65130;SDS011;51709;54.912;8.316;2023-03-20T14:08:00;21.73;;;3.60;;
65130;SDS011;51709;54.912;8.316;2023-03-20T14:13:58;25.17;;;3.85;;
65130;SDS011;51709;54.912;8.316;2023-03-20T14:19:25;12.50;;;4.38;;
65130;SDS011;51709;54.912;8.316;2023-03-20T14:24:55;13.80;;;4.05;;
65130;SDS011;51709;54.912;8.316;2023-03-20T14:35:51;11.35;;;3.33;;
65130;SDS011;51709;54.912;8.316;2023-03-20T14:47:34;17.90;;;4.00;;
65130;SDS011;51709;54.912;8.316;2023-03-20T14:58:58;17.70;;;4.55;;
65130;SDS011;51709;54.912;8.316;2023-03-20T15:04:29;23.83;;;5.35;;
65130;SDS011;51709;54.912;8.316;2023-03-20T15:09:55;17.40;;;3.60;;
65130;SDS011;51709;54.912;8.316;2023-03-20T15:15:29;16.25;;;4.00;;
65130;SDS011;51709;54.912;8.316;2023-03-20T15:20:51;21.50;;;4.35;;
65130;SDS011;51709;54.912;8.316;2023-03-20T15:26:16;19.30;;;4.50;;
65130;SDS011;51709;54.912;8.316;2023-03-20T15:31:39;16.05;;;4.15;;
65130;SDS011;51709;54.912;8.316;2023-03-20T15:37:01;16.50;;;3.88;;
65130;SDS011;51709;54.912;8.316;2023-03-20T15:42:23;20.95;;;4.63;;
65130;SDS011;51709;54.912;8.316;2023-03-20T15:47:44;25.20;;;4.40;;
65130;SDS011;51709;54.912;8.316;2023-03-20T15:53:05;12.60;;;3.60;;
65130;SDS011;51709;54.912;8.316;2023-03-20T15:58:30;21.25;;;3.85;;
65130;SDS011;51709;54.912;8.316;2023-03-20T16:03:52;14.57;;;3.60;;
65130;SDS011;51709;54.912;8.316;2023-03-20T16:09:18;14.95;;;3.85;;
65130;SDS011;51709;54.912;8.316;2023-03-20T16:14:39;16.05;;;3.58;;
65130;SDS011;51709;54.912;8.316;2023-03-20T16:20:00;9.77;;;4.47;;
65130;SDS011;51709;54.912;8.316;2023-03-20T16:25:21;12.63;;;4.22;;
65130;SDS011;51709;54.912;8.316;2023-03-20T16:30:43;12.93;;;4.82;;
65130;SDS011;51709;54.912;8.316;2023-03-20T16:36:03;11.82;;;3.88;;
65130;SDS011;51709;54.912;8.316;2023-03-20T16:41:38;22.42;;;5.22;;
65130;SDS011;51709;54.912;8.316;2023-03-20T16:52:26;33.22;;;6.22;;
65130;SDS011;51709;54.912;8.316;2023-03-20T16:57:49;25.15;;;5.47;;
65130;SDS011;51709;54.912;8.316;2023-03-20T17:03:14;22.25;;;4.57;;
65130;SDS011;51709;54.912;8.316;2023-03-20T17:08:40;21.60;;;5.90;;
65130;SDS011;51709;54.912;8.316;2023-03-20T17:14:04;18.20;;;5.28;;
65130;SDS011;51709;54.912;8.316;2023-03-20T17:19:25;21.60;;;5.22;;
65130;SDS011;51709;54.912;8.316;2023-03-20T17:24:46;28.90;;;5.88;;
65130;SDS011;51709;54.912;8.316;2023-03-20T17:30:15;24.10;;;5.25;;
65130;SDS011;51709;54.912;8.316;2023-03-20T17:35:39;15.43;;;4.53;;
65130;SDS011;51709;54.912;8.316;2023-03-20T17:41:00;18.85;;;4.65;;
65130;SDS011;51709;54.912;8.316;2023-03-20T17:46:30;16.05;;;4.03;;
65130;SDS011;51709;54.912;8.316;2023-03-20T17:52:02;23.88;;;6.00;;
65130;SDS011;51709;54.912;8.316;2023-03-20T18:02:53;22.10;;;5.75;;
65130;SDS011;51709;54.912;8.316;2023-03-20T18:08:18;24.27;;;5.82;;
65130;SDS011;51709;54.912;8.316;2023-03-20T18:13:41;30.15;;;6.85;;
65130;SDS011;51709;54.912;8.316;2023-03-20T18:19:02;26.23;;;5.18;;
65130;SDS011;51709;54.912;8.316;2023-03-20T18:24:23;16.35;;;4.72;;
65130;SDS011;51709;54.912;8.316;2023-03-20T18:29:44;26.70;;;5.47;;
65130;SDS011;51709;54.912;8.316;2023-03-20T18:35:05;20.67;;;5.78;;
65130;SDS011;51709;54.912;8.316;2023-03-20T18:40:28;30.67;;;7.05;;
65130;SDS011;51709;54.912;8.316;2023-03-20T18:45:49;21.38;;;6.90;;
65130;SDS011;51709;54.912;8.316;2023-03-20T18:51:10;26.00;;;8.82;;
65130;SDS011;51709;54.912;8.316;2023-03-20T18:56:31;20.45;;;7.03;;
65130;SDS011;51709;54.912;8.316;2023-03-20T19:01:57;32.25;;;7.20;;
65130;SDS011;51709;54.912;8.316;2023-03-20T19:07:18;23.20;;;6.03;;
65130;SDS011;51709;54.912;8.316;2023-03-20T19:12:38;30.30;;;7.47;;
65130;SDS011;51709;54.912;8.316;2023-03-20T19:18:00;23.80;;;6.97;;
65130;SDS011;51709;54.912;8.316;2023-03-20T19:23:22;23.17;;;7.05;;
65130;SDS011;51709;54.912;8.316;2023-03-20T19:28:44;31.13;;;6.13;;
65130;SDS011;51709;54.912;8.316;2023-03-20T19:34:06;39.78;;;7.03;;
65130;SDS011;51709;54.912;8.316;2023-03-20T19:39:27;33.28;;;6.43;;
65130;SDS011;51709;54.912;8.316;2023-03-20T19:44:48;29.02;;;6.78;;
65130;SDS011;51709;54.912;8.316;2023-03-20T19:50:23;27.17;;;6.15;;
65130;SDS011;51709;54.912;8.316;2023-03-20T19:55:55;39.88;;;7.53;;
65130;SDS011;51709;54.912;8.316;2023-03-20T20:01:17;22.15;;;5.15;;
65130;SDS011;51709;54.912;8.316;2023-03-20T20:06:40;23.00;;;5.75;;
65130;SDS011;51709;54.912;8.316;2023-03-20T20:12:01;21.92;;;5.97;;
65130;SDS011;51709;54.912;8.316;2023-03-20T20:17:24;9.45;;;4.95;;
65130;SDS011;51709;54.912;8.316;2023-03-20T20:22:44;16.90;;;5.93;;
65130;SDS011;51709;54.912;8.316;2023-03-20T20:28:06;12.57;;;4.53;;
65130;SDS011;51709;54.912;8.316;2023-03-20T20:33:28;18.75;;;5.20;;
65130;SDS011;51709;54.912;8.316;2023-03-20T20:38:49;17.10;;;4.65;;
65130;SDS011;51709;54.912;8.316;2023-03-20T20:44:18;12.27;;;5.03;;
65130;SDS011;51709;54.912;8.316;2023-03-20T20:49:39;18.42;;;5.38;;
65130;SDS011;51709;54.912;8.316;2023-03-20T20:55:00;9.57;;;4.88;;
65130;SDS011;51709;54.912;8.316;2023-03-20T21:00:41;13.00;;;4.53;;
65130;SDS011;51709;54.912;8.316;2023-03-20T21:06:12;24.48;;;5.60;;
65130;SDS011;51709;54.912;8.316;2023-03-20T21:11:33;13.93;;;5.03;;
65130;SDS011;51709;54.912;8.316;2023-03-20T21:16:53;21.88;;;5.78;;
65130;SDS011;51709;54.912;8.316;2023-03-20T21:22:20;12.05;;;4.90;;
65130;SDS011;51709;54.912;8.316;2023-03-20T21:27:42;8.38;;;4.00;;
65130;SDS011;51709;54.912;8.316;2023-03-20T21:33:03;14.93;;;4.70;;
65130;SDS011;51709;54.912;8.316;2023-03-20T21:38:24;14.73;;;4.45;;
65130;SDS011;51709;54.912;8.316;2023-03-20T21:44:06;10.27;;;4.70;;
65130;SDS011;51709;54.912;8.316;2023-03-20T21:49:27;10.75;;;4.63;;
65130;SDS011;51709;54.912;8.316;2023-03-20T21:55:08;13.85;;;4.55;;
65130;SDS011;51709;54.912;8.316;2023-03-20T22:00:48;9.13;;;4.00;;
65130;SDS011;51709;54.912;8.316;2023-03-20T22:06:30;4.82;;;2.80;;
65130;SDS011;51709;54.912;8.316;2023-03-20T22:12:11;7.05;;;3.17;;
65130;SDS011;51709;54.912;8.316;2023-03-20T22:17:52;17.85;;;3.78;;
65130;SDS011;51709;54.912;8.316;2023-03-20T22:23:32;10.55;;;3.13;;
65130;SDS011;51709;54.912;8.316;2023-03-20T22:29:14;8.68;;;3.58;;
65130;SDS011;51709;54.912;8.316;2023-03-20T22:34:56;10.50;;;3.58;;
65130;SDS011;51709;54.912;8.316;2023-03-20T22:40:38;11.10;;;3.65;;
65130;SDS011;51709;54.912;8.316;2023-03-20T22:46:20;5.78;;;3.70;;
65130;SDS011;51709;54.912;8.316;2023-03-20T22:52:00;13.30;;;4.80;;
65130;SDS011;51709;54.912;8.316;2023-03-20T22:57:41;20.02;;;4.50;;
65130;SDS011;51709;54.912;8.316;2023-03-20T23:03:18;20.42;;;5.38;;
65130;SDS011;51709;54.912;8.316;2023-03-20T23:08:59;11.10;;;4.07;;
65130;SDS011;51709;54.912;8.316;2023-03-20T23:14:32;17.10;;;5.05;;
65130;SDS011;51709;54.912;8.316;2023-03-20T23:20:05;17.80;;;4.72;;
65130;SDS011;51709;54.912;8.316;2023-03-20T23:25:32;20.33;;;4.75;;
65130;SDS011;51709;54.912;8.316;2023-03-20T23:31:06;18.98;;;4.57;;
65130;SDS011;51709;54.912;8.316;2023-03-20T23:36:35;13.93;;;4.38;;
65130;SDS011;51709;54.912;8.316;2023-03-20T23:41:56;11.55;;;4.80;;
65130;SDS011;51709;54.912;8.316;2023-03-20T23:47:33;11.27;;;5.10;;
65130;SDS011;51709;54.912;8.316;2023-03-20T23:53:15;11.80;;;4.78;;
65130;SDS011;51709;54.912;8.316;2023-03-20T23:58:56;18.73;;;5.32;;
